Time;durP1;ratioP1;P1;durP2;ratioP2;P2;SDS_P1;SDS_P2;PMS_P1;PMS_P2;Temp;Humidity;BMP_temperature;BMP_pressure;BME280_temperature;BME280_humidity;BME280_pressure;Samples;Min_cycle;Max_cycle;Signal;HPM_P1;HPM_P2
2022/08/31 00:05:26;;;;;;;0.90;0.90;;;;;17.20;96265.00;;;;5116784;28;20205;-73
2022/08/31 00:07:53;;;;;;;0.77;0.77;;;;;17.20;96268.00;;;;5098629;28;20222;-71
2022/08/31 00:10:26;;;;;;;0.97;0.90;;;;;17.10;96268.00;;;;5116445;28;20220;-72
2022/08/31 00:12:53;;;;;;;1.00;1.00;;;;;17.20;96278.00;;;;5116410;28;20247;-74
2022/08/31 00:15:22;;;;;;;1.00;1.00;;;;;17.20;96291.00;;;;5116478;28;20194;-74
2022/08/31 00:17:50;;;;;;;0.97;0.97;;;;;17.20;96298.00;;;;5116271;28;20198;-74
2022/08/31 00:20:19;;;;;;;2.47;1.63;;;;;17.20;96295.00;;;;5116291;28;20198;-74
2022/08/31 00:22:46;;;;;;;1.23;1.23;;;;;17.40;96289.00;;;;5116234;28;20206;-73
2022/08/31 00:25:13;;;;;;;1.10;1.10;;;;;17.40;96295.00;;;;5116130;28;20197;-74
2022/08/31 00:27:40;;;;;;;2.97;2.77;;;;;17.50;96288.00;;;;5116401;28;20186;-74
2022/08/31 00:30:11;;;;;;;1.43;1.00;;;;;17.50;96277.00;;;;5116055;28;20214;-72
2022/08/31 00:32:37;;;;;;;0.97;0.97;;;;;17.50;96273.00;;;;5098137;28;20358;-74
2022/08/31 00:35:05;;;;;;;0.80;0.80;;;;;17.50;96281.00;;;;5116077;28;20217;-74
2022/08/31 00:37:34;;;;;;;1.23;1.23;;;;;17.40;96286.00;;;;5098130;28;20625;-74
2022/08/31 00:40:01;;;;;;;2.60;1.83;;;;;17.40;96291.00;;;;5097874;28;20510;-74
2022/08/31 00:42:28;;;;;;;0.90;0.90;;;;;17.30;96286.00;;;;5115977;28;20202;-72
2022/08/31 00:44:55;;;;;;;3.97;1.40;;;;;17.40;96289.00;;;;5115925;28;20217;-70
2022/08/31 00:47:23;;;;;;;1.07;1.07;;;;;17.30;96289.00;;;;5097970;28;20198;-73
2022/08/31 00:49:50;;;;;;;2.20;1.63;;;;;17.10;96284.00;;;;5115715;28;20242;-70
2022/08/31 00:52:23;;;;;;;1.00;1.00;;;;;17.00;96275.00;;;;5115949;28;20228;-73
2022/08/31 00:54:54;;;;;;;1.00;1.00;;;;;17.00;96274.00;;;;5115763;28;20228;-74
2022/08/31 00:57:26;;;;;;;1.10;1.10;;;;;17.00;96271.00;;;;5115814;28;20660;-74
2022/08/31 00:59:55;;;;;;;1.07;1.07;;;;;17.10;96268.00;;;;5097783;28;20198;-74
2022/08/31 01:02:23;;;;;;;1.73;1.63;;;;;17.20;96263.00;;;;5115294;28;20197;-73
2022/08/31 01:04:49;;;;;;;1.00;1.00;;;;;17.20;96277.00;;;;5115595;28;20732;-74
2022/08/31 01:07:16;;;;;;;0.93;0.93;;;;;17.10;96259.00;;;;5115616;28;20194;-74
2022/08/31 01:09:44;;;;;;;0.97;0.97;;;;;17.10;96271.00;;;;5115423;28;20591;-74
2022/08/31 01:12:12;;;;;;;0.83;0.83;;;;;17.00;96268.00;;;;5115466;28;20186;-73
2022/08/31 01:14:40;;;;;;;1.13;1.10;;;;;17.10;96265.00;;;;5115183;28;20233;-73
2022/08/31 01:17:07;;;;;;;1.07;1.07;;;;;17.00;96261.00;;;;5115553;28;20189;-73
2022/08/31 01:19:37;;;;;;;0.97;0.97;;;;;17.10;96261.00;;;;5115309;28;20282;-73
2022/08/31 01:22:14;;;;;;;1.17;1.10;;;;;17.10;96253.00;;;;5097307;28;20202;-73
2022/08/31 01:24:47;;;;;;;1.43;1.33;;;;;17.10;96253.00;;;;5115159;28;20527;-74
2022/08/31 01:27:21;;;;;;;0.70;0.70;;;;;17.10;96256.00;;;;5115367;28;20204;-74
2022/08/31 01:29:48;;;;;;;1.77;1.20;;;;;17.20;96256.00;;;;5115299;28;20202;-74
2022/08/31 01:32:17;;;;;;;1.00;1.00;;;;;17.20;96262.00;;;;5115153;28;20636;-74
2022/08/31 01:34:44;;;;;;;0.50;0.50;;;;;17.30;96265.00;;;;5115203;28;20214;-73
2022/08/31 01:37:11;;;;;;;1.27;1.27;;;;;17.30;96265.00;;;;5115081;28;20736;-74
2022/08/31 01:39:41;;;;;;;0.70;0.70;;;;;17.30;96260.00;;;;5115175;28;20210;-71
2022/08/31 01:42:08;;;;;;;0.73;0.73;;;;;17.20;96259.00;;;;5114882;28;20243;-74
2022/08/31 01:44:35;;;;;;;1.37;1.30;;;;;17.30;96260.00;;;;5114957;28;20228;-73
2022/08/31 01:47:01;;;;;;;1.07;1.07;;;;;17.40;96262.00;;;;5115000;28;20190;-75
2022/08/31 01:49:29;;;;;;;1.17;1.07;;;;;17.20;96262.00;;;;5114878;28;20218;-74
2022/08/31 01:51:58;;;;;;;0.80;0.80;;;;;17.30;96261.00;;;;5114964;28;20198;-75
2022/08/31 01:54:27;;;;;;;0.67;0.67;;;;;17.30;96265.00;;;;5114913;28;20729;-74
2022/08/31 01:56:55;;;;;;;0.80;0.80;;;;;17.40;96266.00;;;;5120771;28;20197;-73
2022/08/31 01:59:24;;;;;;;0.67;0.67;;;;;17.50;96272.00;;;;5127087;28;20308;-73
2022/08/31 02:01:53;;;;;;;1.63;1.53;;;;;17.50;96271.00;;;;5125278;28;20220;-73
2022/08/31 02:04:25;;;;;;;0.80;0.80;;;;;17.50;96263.00;;;;5115369;28;20228;-75
2022/08/31 02:06:54;;;;;;;0.80;0.80;;;;;17.40;96253.00;;;;5114599;28;20224;-74
2022/08/31 02:09:24;;;;;;;0.87;0.87;;;;;17.40;96261.00;;;;5115376;28;20213;-69
2022/08/31 02:11:51;;;;;;;0.80;0.80;;;;;17.30;96267.00;;;;5114132;28;20194;-72
2022/08/31 02:14:19;;;;;;;1.33;1.33;;;;;17.10;96253.00;;;;5114183;28;20286;-73
2022/08/31 02:16:47;;;;;;;0.97;0.97;;;;;17.10;96250.00;;;;5114499;28;20194;-74
2022/08/31 02:19:16;;;;;;;1.10;1.10;;;;;17.10;96252.00;;;;5114402;28;20190;-75
2022/08/31 02:21:43;;;;;;;1.97;1.87;;;;;17.10;96248.00;;;;5114341;28;20264;-74
2022/08/31 02:24:12;;;;;;;0.90;0.90;;;;;17.00;96260.00;;;;5114290;28;20206;-69
2022/08/31 02:26:40;;;;;;;0.63;0.63;;;;;16.90;96252.00;;;;5114297;28;20217;-74
2022/08/31 02:29:07;;;;;;;1.20;1.20;;;;;16.90;96255.00;;;;5114238;28;20197;-74
2022/08/31 02:31:34;;;;;;;1.00;1.00;;;;;17.00;96250.00;;;;5114349;28;20193;-69
2022/08/31 02:34:01;;;;;;;1.50;1.00;;;;;16.90;96246.00;;;;5114058;28;20669;-73
2022/08/31 02:36:30;;;;;;;1.20;1.17;;;;;17.20;96246.00;;;;5114167;28;20194;-72
2022/08/31 02:39:00;;;;;;;0.97;0.90;;;;;17.10;96241.00;;;;5114229;28;20194;-75
2022/08/31 02:41:29;;;;;;;0.80;0.80;;;;;17.00;96256.00;;;;5114190;28;20247;-74
2022/08/31 02:43:56;;;;;;;0.90;0.90;;;;;17.00;96255.00;;;;5113901;28;20226;-73
2022/08/31 02:46:25;;;;;;;0.83;0.83;;;;;17.00;96265.00;;;;5113992;28;20225;-75
2022/08/31 02:48:52;;;;;;;0.70;0.70;;;;;17.00;96260.00;;;;5113952;28;20256;-75
2022/08/31 02:51:19;;;;;;;1.63;1.53;;;;;17.00;96260.00;;;;5113913;28;20218;-75
2022/08/31 02:53:49;;;;;;;2.33;2.07;;;;;17.00;96263.00;;;;5113789;28;20542;-75
2022/08/31 02:56:18;;;;;;;1.03;1.03;;;;;17.00;96274.00;;;;5113902;28;20277;-75
2022/08/31 02:58:45;;;;;;;1.53;1.20;;;;;17.00;96257.00;;;;5113856;28;20236;-75
2022/08/31 03:01:14;;;;;;;0.73;0.73;;;;;17.00;96258.00;;;;5113889;28;20214;-73
2022/08/31 03:03:41;;;;;;;0.90;0.90;;;;;17.00;96258.00;;;;5113838;28;20204;-75
2022/08/31 03:06:08;;;;;;;1.20;1.10;;;;;17.10;96254.00;;;;5113726;28;20218;-75
2022/08/31 03:08:35;;;;;;;1.00;1.00;;;;;17.00;96254.00;;;;5113896;28;20229;-75
2022/08/31 03:11:02;;;;;;;0.70;0.70;;;;;17.00;96248.00;;;;5113785;28;20700;-74
2022/08/31 03:13:31;;;;;;;0.70;0.70;;;;;16.90;96248.00;;;;5113598;28;20282;-75
2022/08/31 03:15:58;;;;;;;1.37;1.27;;;;;16.90;96246.00;;;;5095642;28;20224;-74
2022/08/31 03:18:25;;;;;;;1.17;1.10;;;;;16.90;96243.00;;;;5113570;28;20190;-75
2022/08/31 03:20:52;;;;;;;1.20;1.20;;;;;16.90;96243.00;;;;5113606;28;20186;-75
2022/08/31 03:23:19;;;;;;;0.97;0.90;;;;;17.00;96244.00;;;;5113799;28;20254;-75
2022/08/31 03:25:46;;;;;;;1.77;1.00;;;;;17.00;96238.00;;;;5117339;28;20201;-75
2022/08/31 03:28:13;;;;;;;1.43;1.33;;;;;17.00;96234.00;;;;5117209;28;20228;-75
2022/08/31 03:30:40;;;;;;;0.83;0.83;;;;;16.90;96228.00;;;;5099363;28;20198;-75
2022/08/31 03:33:10;;;;;;;8.73;0.83;;;;;16.80;96220.00;;;;5116868;28;20290;-74
2022/08/31 03:35:43;;;;;;;1.30;1.30;;;;;16.60;96235.00;;;;5116995;28;20202;-75
2022/08/31 03:38:11;;;;;;;1.00;1.00;;;;;16.60;96236.00;;;;5117036;28;20189;-71
2022/08/31 03:40:39;;;;;;;0.90;0.90;;;;;16.70;96232.00;;;;5098865;28;20205;-74
2022/08/31 03:43:10;;;;;;;2.87;1.97;;;;;16.50;96234.00;;;;5116922;28;20206;-74
2022/08/31 03:45:37;;;;;;;1.23;1.23;;;;;16.40;96234.00;;;;5116898;28;20213;-74
2022/08/31 03:48:06;;;;;;;1.20;1.20;;;;;16.20;96233.00;;;;5116839;28;20198;-74
2022/08/31 03:50:33;;;;;;;0.70;0.70;;;;;16.10;96232.00;;;;5116819;28;20293;-74
2022/08/31 03:53:02;;;;;;;1.00;1.00;;;;;16.00;96245.00;;;;5098708;28;20728;-74
2022/08/31 03:55:30;;;;;;;1.43;1.33;;;;;16.10;96245.00;;;;5116641;28;20229;-73
2022/08/31 03:57:57;;;;;;;0.70;0.70;;;;;16.20;96246.00;;;;5116747;28;20247;-74
2022/08/31 04:00:24;;;;;;;1.10;1.10;;;;;16.10;96246.00;;;;5116578;28;20255;-73
2022/08/31 04:02:51;;;;;;;1.23;1.23;;;;;15.90;96245.00;;;;5116589;28;20190;-73
2022/08/31 04:05:18;;;;;;;1.23;1.23;;;;;16.10;96245.00;;;;5116690;28;20193;-74
2022/08/31 04:07:45;;;;;;;1.57;1.30;;;;;16.00;96245.00;;;;5116759;28;20209;-73
2022/08/31 04:10:13;;;;;;;0.90;0.90;;;;;16.10;96245.00;;;;5116497;28;20198;-73
2022/08/31 04:12:40;;;;;;;1.43;1.43;;;;;16.10;96257.00;;;;5098324;28;20240;-75
2022/08/31 04:15:09;;;;;;;1.30;1.30;;;;;16.20;96249.00;;;;5116264;28;20253;-74
2022/08/31 04:17:36;;;;;;;0.73;0.73;;;;;16.10;96247.00;;;;5116244;28;20675;-73
2022/08/31 04:20:04;;;;;;;0.60;0.60;;;;;16.20;96248.00;;;;5098574;28;20202;-74
2022/08/31 04:22:31;;;;;;;1.03;1.03;;;;;16.40;96255.00;;;;5116250;28;20315;-75
2022/08/31 04:24:58;;;;;;;1.10;1.10;;;;;16.40;96254.00;;;;5116239;28;20216;-74
2022/08/31 04:27:25;;;;;;;0.90;0.90;;;;;16.30;96250.00;;;;5116158;28;20247;-74
2022/08/31 04:29:52;;;;;;;1.00;1.00;;;;;16.40;96251.00;;;;5116259;28;20205;-74
2022/08/31 04:32:19;;;;;;;0.60;0.60;;;;;16.30;96245.00;;;;5098092;28;20217;-69
2022/08/31 04:34:46;;;;;;;1.23;1.20;;;;;16.30;96243.00;;;;5097883;28;20278;-74
2022/08/31 04:37:13;;;;;;;1.93;0.93;;;;;16.20;96245.00;;;;5115413;28;20251;-74
2022/08/31 04:39:41;;;;;;;1.53;0.80;;;;;16.00;96239.00;;;;5116239;28;20657;-73
2022/08/31 04:42:09;;;;;;;1.17;1.17;;;;;16.00;96240.00;;;;5115931;28;20194;-74
2022/08/31 04:44:36;;;;;;;0.97;0.97;;;;;16.00;96247.00;;;;5115988;28;20210;-75
2022/08/31 04:47:03;;;;;;;0.70;0.70;;;;;16.20;96248.00;;;;5115801;28;20186;-74
2022/08/31 04:49:30;;;;;;;0.83;0.83;;;;;16.10;96256.00;;;;5115996;28;20565;-74
2022/08/31 04:51:57;;;;;;;0.83;0.83;;;;;16.10;96253.00;;;;5115956;28;20213;-74
2022/08/31 04:54:24;;;;;;;0.90;0.90;;;;;15.70;96249.00;;;;5115700;28;20411;-74
2022/08/31 04:56:51;;;;;;;0.80;0.80;;;;;15.70;96248.00;;;;5115718;28;20194;-74
2022/08/31 04:59:24;;;;;;;0.87;0.87;;;;;15.70;96248.00;;;;5115623;28;20194;-74
2022/08/31 05:01:54;;;;;;;1.53;1.43;;;;;15.70;96252.00;;;;5115632;28;20209;-74
2022/08/31 05:04:23;;;;;;;1.00;1.00;;;;;15.70;96252.00;;;;5115816;28;20194;-74
2022/08/31 05:06:51;;;;;;;0.90;0.90;;;;;15.50;96262.00;;;;5115593;28;20227;-74
2022/08/31 05:09:19;;;;;;;0.80;0.80;;;;;15.70;96248.00;;;;5115477;28;20194;-72
2022/08/31 05:11:48;;;;;;;1.43;1.37;;;;;15.50;96256.00;;;;5097545;28;20230;-74
2022/08/31 05:14:15;;;;;;;1.07;1.07;;;;;15.50;96252.00;;;;5115389;28;20657;-74
2022/08/31 05:16:43;;;;;;;0.77;0.77;;;;;15.40;96252.00;;;;5115460;28;20277;-74
2022/08/31 05:19:12;;;;;;;0.87;0.87;;;;;15.50;96257.00;;;;5097256;28;20286;-72
2022/08/31 05:21:41;;;;;;;0.60;0.60;;;;;15.60;96253.00;;;;5115273;28;20209;-74
2022/08/31 05:24:11;;;;;;;0.87;0.87;;;;;15.70;96249.00;;;;5115131;28;20321;-74
2022/08/31 05:26:43;;;;;;;0.77;0.77;;;;;15.70;96246.00;;;;5115256;28;20194;-74
2022/08/31 05:29:13;;;;;;;0.73;0.73;;;;;15.80;96238.00;;;;5115136;28;20722;-74
2022/08/31 05:31:43;;;;;;;1.57;1.47;;;;;15.90;96231.00;;;;5115177;28;20190;-71
2022/08/31 05:34:11;;;;;;;1.37;1.37;;;;;15.80;96229.00;;;;5115102;28;20226;-72
2022/08/31 05:36:39;;;;;;;0.60;0.60;;;;;15.90;96231.00;;;;5115204;28;20417;-73
2022/08/31 05:39:10;;;;;;;0.60;0.60;;;;;15.80;96230.00;;;;5114928;28;20228;-73
2022/08/31 05:41:42;;;;;;;0.80;0.80;;;;;15.90;96215.00;;;;5097029;28;20212;-72
2022/08/31 05:44:09;;;;;;;0.57;0.57;;;;;15.60;96229.00;;;;5114938;28;20689;-72
2022/08/31 05:46:37;;;;;;;1.53;1.43;;;;;15.70;96235.00;;;;5114846;28;20700;-73
2022/08/31 05:49:06;;;;;;;0.57;0.57;;;;;15.60;96223.00;;;;5114760;28;20292;-73
2022/08/31 05:51:33;;;;;;;1.07;1.07;;;;;15.80;96240.00;;;;5114864;28;20190;-74
2022/08/31 05:54:01;;;;;;;1.10;1.10;;;;;15.80;96248.00;;;;5115317;28;20301;-73
2022/08/31 05:56:28;;;;;;;0.50;0.50;;;;;15.90;96256.00;;;;5114827;28;20515;-73
2022/08/31 05:58:56;;;;;;;0.83;0.83;;;;;16.00;96261.00;;;;5097061;28;20225;-72
2022/08/31 06:01:25;;;;;;;1.27;1.27;;;;;15.90;96264.00;;;;5114706;28;20201;-69
2022/08/31 06:03:53;;;;;;;0.80;0.80;;;;;16.00;96270.00;;;;5114590;28;20312;-70
2022/08/31 06:06:19;;;;;;;1.00;1.00;;;;;16.00;96267.00;;;;5096650;28;20201;-73
2022/08/31 06:08:46;;;;;;;1.03;1.03;;;;;16.00;96273.00;;;;5114587;28;20221;-73
2022/08/31 06:11:18;;;;;;;0.87;0.87;;;;;16.00;96275.00;;;;5114547;28;20189;-73
2022/08/31 06:13:45;;;;;;;0.70;0.70;;;;;15.90;96269.00;;;;5096388;28;20664;-72
2022/08/31 06:16:13;;;;;;;0.80;0.80;;;;;16.00;96276.00;;;;5114495;28;20186;-72
2022/08/31 06:18:45;;;;;;;0.80;0.80;;;;;15.90;96283.00;;;;5114240;28;20213;-73
2022/08/31 06:21:14;;;;;;;0.77;0.77;;;;;15.90;96284.00;;;;5114447;28;20259;-72
2022/08/31 06:23:42;;;;;;;0.70;0.70;;;;;16.00;96285.00;;;;5114238;28;20222;-73
2022/08/31 06:26:14;;;;;;;0.87;0.87;;;;;16.10;96291.00;;;;5114298;28;20198;-73
2022/08/31 06:28:42;;;;;;;1.53;1.43;;;;;16.20;96297.00;;;;5114218;28;20579;-73
2022/08/31 06:31:15;;;;;;;0.67;0.67;;;;;16.20;96310.00;;;;5114069;28;20259;-72
2022/08/31 06:33:44;;;;;;;1.77;1.67;;;;;16.10;96307.00;;;;5096105;28;20233;-72
2022/08/31 06:36:12;;;;;;;1.30;0.87;;;;;16.00;96304.00;;;;5114134;28;20643;-73
2022/08/31 06:38:43;;;;;;;0.67;0.67;;;;;16.00;96305.00;;;;5113891;28;20221;-69
2022/08/31 06:41:14;;;;;;;1.03;1.03;;;;;16.00;96300.00;;;;5114072;28;20220;-70
2022/08/31 06:43:41;;;;;;;0.80;0.80;;;;;16.00;96305.00;;;;5113949;28;20679;-73
2022/08/31 06:46:08;;;;;;;0.70;0.70;;;;;16.10;96310.00;;;;5113970;28;20301;-73
2022/08/31 06:48:36;;;;;;;1.03;1.03;;;;;16.10;96309.00;;;;5113844;28;20214;-73
2022/08/31 06:51:05;;;;;;;0.63;0.63;;;;;15.90;96306.00;;;;5113917;28;20194;-73
2022/08/31 06:53:33;;;;;;;0.87;0.87;;;;;16.00;96306.00;;;;5113729;28;20218;-73
2022/08/31 06:56:04;;;;;;;0.60;0.60;;;;;16.00;96308.00;;;;5113831;28;20285;-73
2022/08/31 06:58:31;;;;;;;1.37;1.37;;;;;16.10;96295.00;;;;5113238;28;20198;-72
2022/08/31 07:01:03;;;;;;;0.60;0.60;;;;;16.10;96306.00;;;;5114212;28;20496;-74
2022/08/31 07:03:32;;;;;;;0.87;0.87;;;;;16.20;96311.00;;;;5113832;28;20342;-73
2022/08/31 07:06:05;;;;;;;0.83;0.83;;;;;16.10;96304.00;;;;5113932;28;20731;-73
2022/08/31 07:08:32;;;;;;;1.23;1.23;;;;;16.20;96296.00;;;;5113819;28;20280;-73
2022/08/31 07:10:59;;;;;;;1.00;1.00;;;;;16.20;96296.00;;;;5113708;28;20210;-70
2022/08/31 07:13:26;;;;;;;0.63;0.63;;;;;16.30;96295.00;;;;5113593;28;20653;-72
2022/08/31 07:16:03;;;;;;;1.63;1.53;;;;;16.30;96293.00;;;;5113835;28;20254;-73
2022/08/31 07:18:33;;;;;;;0.93;0.93;;;;;16.40;96295.00;;;;5113830;28;20189;-73
2022/08/31 07:21:14;;;;;;;0.63;0.63;;;;;16.50;96305.00;;;;5113633;28;20200;-72
2022/08/31 07:23:42;;;;;;;0.80;0.80;;;;;16.50;96290.00;;;;5095482;28;20364;-74
2022/08/31 07:26:15;;;;;;;0.83;0.83;;;;;16.40;96302.00;;;;5113592;28;20629;-73
2022/08/31 07:28:47;;;;;;;1.00;1.00;;;;;16.40;96305.00;;;;5113506;28;20198;-73
2022/08/31 07:31:14;;;;;;;1.00;1.00;;;;;16.40;96301.00;;;;5113388;28;20212;-73
2022/08/31 07:33:41;;;;;;;0.93;0.93;;;;;16.50;96313.00;;;;5113183;28;20213;-73
2022/08/31 07:36:11;;;;;;;0.60;0.60;;;;;16.40;96323.00;;;;5113636;28;20182;-73
2022/08/31 07:44:19;;;;;;;1.10;1.10;;;;;16.50;96335.00;;;;5098224;28;20234;-74
2022/08/31 07:46:53;;;;;;;0.60;0.60;;;;;16.50;96347.00;;;;5113198;28;20204;-73
2022/08/31 07:49:21;;;;;;;0.93;0.93;;;;;16.60;96341.00;;;;5112969;28;20300;-73
2022/08/31 07:51:51;;;;;;;1.67;1.60;;;;;16.40;96336.00;;;;5113080;28;20330;-73
2022/08/31 07:54:22;;;;;;;1.80;1.63;;;;;16.40;96337.00;;;;5113038;28;20697;-73
2022/08/31 07:56:50;;;;;;;0.83;0.83;;;;;16.60;96321.00;;;;5095144;28;20210;-74
2022/08/31 07:59:18;;;;;;;1.03;1.00;;;;;16.70;96322.00;;;;5113334;28;20218;-71
2022/08/31 08:01:45;;;;;;;1.40;1.33;;;;;16.80;96320.00;;;;5113352;28;20348;-73
2022/08/31 08:04:20;;;;;;;0.73;0.73;;;;;17.00;96330.00;;;;5113195;28;20301;-73
2022/08/31 08:06:47;;;;;;;0.97;0.83;;;;;17.00;96322.00;;;;5113386;28;20198;-71
2022/08/31 08:09:15;;;;;;;0.40;0.40;;;;;16.90;96332.00;;;;5096074;28;20545;-75
2022/08/31 08:11:44;;;;;;;0.83;0.83;;;;;17.00;96338.00;;;;5116708;28;20343;-73
2022/08/31 08:14:11;;;;;;;2.77;1.53;;;;;16.90;96338.00;;;;5117011;28;20217;-70
2022/08/31 08:16:38;;;;;;;0.80;0.80;;;;;16.90;96339.00;;;;5119691;28;20688;-72
2022/08/31 08:19:05;;;;;;;0.80;0.80;;;;;16.70;96334.00;;;;5119838;28;20193;-74
2022/08/31 08:21:32;;;;;;;0.70;0.70;;;;;16.80;96342.00;;;;5119869;28;20350;-75
2022/08/31 08:24:02;;;;;;;1.50;1.40;;;;;16.60;96341.00;;;;5117309;28;20220;-74
2022/08/31 08:26:29;;;;;;;0.80;0.80;;;;;16.70;96341.00;;;;5099471;28;20205;-73
2022/08/31 08:28:56;;;;;;;0.90;0.90;;;;;16.70;96344.00;;;;5117736;28;20322;-76
2022/08/31 08:31:23;;;;;;;0.67;0.67;;;;;16.80;96340.00;;;;5117738;28;20748;-75
2022/08/31 08:33:51;;;;;;;0.70;0.70;;;;;16.90;96339.00;;;;5117077;28;20384;-74
2022/08/31 08:36:21;;;;;;;0.80;0.80;;;;;17.10;96346.00;;;;5116201;28;20193;-74
2022/08/31 08:38:49;;;;;;;0.87;0.87;;;;;17.20;96340.00;;;;5116240;28;20194;-74
2022/08/31 08:41:19;;;;;;;0.80;0.80;;;;;17.20;96346.00;;;;5116168;28;20270;-74
2022/08/31 08:43:49;;;;;;;1.30;1.30;;;;;17.40;96356.00;;;;5116041;28;20262;-71
2022/08/31 08:46:18;;;;;;;1.00;1.00;;;;;17.50;96354.00;;;;5116017;28;20200;-74
2022/08/31 08:48:46;;;;;;;0.90;0.90;;;;;17.40;96347.00;;;;5098016;28;20202;-72
2022/08/31 08:51:18;;;;;;;0.80;0.80;;;;;17.30;96354.00;;;;5115889;28;20206;-72
2022/08/31 08:53:48;;;;;;;1.27;1.27;;;;;17.30;96357.00;;;;5115766;28;20248;-74
2022/08/31 08:56:15;;;;;;;1.10;1.10;;;;;17.20;96351.00;;;;5097959;28;20205;-73
2022/08/31 08:58:42;;;;;;;1.13;1.13;;;;;17.10;96360.00;;;;5115784;28;20629;-74
2022/08/31 09:01:14;;;;;;;0.70;0.70;;;;;17.30;96364.00;;;;5115705;28;20194;-74
2022/08/31 09:04:06;;;;;;;0.70;0.70;;;;;17.20;96368.00;;;;5115775;28;20279;-72
2022/08/31 09:06:41;;;;;;;1.27;1.20;;;;;17.10;96359.00;;;;5115841;28;20201;-74
2022/08/31 09:09:31;;;;;;;0.80;0.80;;;;;17.20;96363.00;;;;5115637;28;20280;-72
2022/08/31 09:12:08;;;;;;;0.97;0.97;;;;;17.30;96371.00;;;;5115674;28;20197;-74
2022/08/31 09:14:48;;;;;;;0.83;0.83;;;;;17.40;96360.00;;;;5115501;28;20244;-74
2022/08/31 09:17:33;;;;;;;1.67;1.57;;;;;17.10;96363.00;;;;5115674;28;20213;-74
2022/08/31 09:20:02;;;;;;;0.90;0.90;;;;;17.20;96354.00;;;;5115490;28;20534;-74
2022/08/31 09:22:32;;;;;;;0.87;0.87;;;;;17.20;96360.00;;;;5115116;28;20198;-75
2022/08/31 09:25:02;;;;;;;1.60;1.50;;;;;17.30;96364.00;;;;5115313;28;20221;-74
2022/08/31 09:27:44;;;;;;;1.13;1.13;;;;;17.50;96364.00;;;;5115402;28;20182;-74
2022/08/31 09:30:16;;;;;;;4.33;1.53;;;;;17.70;96357.00;;;;5115323;28;20665;-74
2022/08/31 09:32:55;;;;;;;1.03;1.03;;;;;17.60;96369.00;;;;5115274;28;20198;-74
2022/08/31 09:35:28;;;;;;;1.47;1.37;;;18.20;94.10;17.60;96365.00;;;;5115075;28;20232;-73
2022/08/31 09:38:05;;;;;;;0.70;0.70;;;18.10;99.90;17.50;96365.00;;;;5115293;28;20354;-74
2022/08/31 09:40:38;;;;;;;1.03;1.03;;;18.10;94.60;17.60;96372.00;;;;5115119;28;20269;-73
2022/08/31 09:43:09;;;;;;;1.07;1.03;;;18.10;93.70;17.60;96367.00;;;;5115168;28;20592;-73
2022/08/31 09:45:49;;;;;;;0.93;0.93;;;18.10;94.30;17.70;96363.00;;;;5115048;28;20217;-73
2022/08/31 09:48:43;;;;;;;1.67;1.57;;;18.20;93.90;17.80;96368.00;;;;5115325;28;20298;-70
2022/08/31 09:51:20;;;;;;;1.33;1.33;;;18.20;93.70;17.80;96367.00;;;;5115380;28;20221;-74
2022/08/31 09:56:54;;;;;;;2.03;1.53;;;18.30;93.60;17.90;96365.00;;;;5115093;28;20277;-74
2022/08/31 09:59:36;;;;;;;1.50;1.40;;;18.40;93.90;18.00;96371.00;;;;5114942;28;20270;-72
2022/08/31 10:02:10;;;;;;;0.90;0.90;;;18.50;93.90;18.10;96366.00;;;;5114843;28;20193;-73
2022/08/31 10:04:50;;;;;;;0.90;0.90;;;18.60;93.70;18.20;96365.00;;;;5115006;28;20279;-70
2022/08/31 10:07:36;;;;;;;3.10;1.90;;;18.60;94.60;18.20;96364.00;;;;5114638;28;20201;-72
2022/08/31 10:10:09;;;;;;;0.67;0.67;;;18.60;93.70;18.10;96362.00;;;;5114623;28;20194;-73
2022/08/31 10:12:44;;;;;;;1.30;1.30;;;18.70;93.40;18.10;96373.00;;;;5096641;28;20205;-73
2022/08/31 10:15:20;;;;;;;1.20;1.10;;;18.60;93.90;18.00;96364.00;;;;5114493;28;20252;-73
2022/08/31 10:18:01;;;;;;;1.57;1.47;;;18.60;91.40;17.90;96368.00;;;;5114530;28;20201;-72
2022/08/31 10:20:38;;;;;;;1.57;1.53;;;18.60;93.10;18.00;96372.00;;;;5114521;28;20236;-74
2022/08/31 10:23:19;;;;;;;1.97;1.83;;;18.50;92.90;17.90;96377.00;;;;5114538;28;20221;-73
2022/08/31 10:25:57;;;;;;;0.83;0.83;;;18.40;93.70;17.90;96380.00;;;;5114352;28;20221;-72
2022/08/31 10:28:35;;;;;;;1.03;1.03;;;18.40;94.00;17.90;96385.00;;;;5114302;28;20330;-71
2022/08/31 10:31:12;;;;;;;0.90;0.90;;;18.40;94.70;17.90;96381.00;;;;5114264;28;20225;-73
2022/08/31 10:36:41;;;;;;;1.50;1.20;;;18.20;96.40;17.60;96383.00;;;;5114161;28;20221;-73
2022/08/31 10:39:27;;;;;;;0.70;0.70;;;18.10;97.30;17.50;96386.00;;;;5114325;28;20194;-73
2022/08/31 10:41:54;;;;;;;1.07;1.00;;;18.10;98.40;17.60;96389.00;;;;5114230;28;20227;-69
2022/08/31 10:44:39;;;;;;;1.10;1.10;;;18.10;98.70;17.80;96389.00;;;;5114399;28;20213;-73
2022/08/31 10:47:07;;;;;;;2.60;1.67;;;18.20;95.10;17.80;96391.00;;;;5114238;28;20232;-74
2022/08/31 10:49:38;;;;;;;1.00;1.00;;;18.20;93.70;17.70;96387.00;;;;5114127;28;20221;-73
2022/08/31 10:52:17;;;;;;;1.20;0.87;;;18.20;93.20;17.90;96385.00;;;;5096190;28;20198;-73
2022/08/31 10:55:05;;;;;;;0.90;0.90;;;18.30;94.40;17.90;96394.00;;;;5113954;28;20316;-73
2022/08/31 10:57:44;;;;;;;2.37;1.70;;;18.30;94.80;18.10;96395.00;;;;5095973;28;20211;-73
2022/08/31 11:03:12;;;;;;;2.13;1.50;;;18.50;90.20;18.00;96389.00;;;;5094896;28;20634;-73
2022/08/31 11:05:47;;;;;;;1.07;1.07;;;18.40;89.90;18.00;96402.00;;;;5113751;28;20226;-74
2022/08/31 11:08:48;;;;;;;0.90;0.90;;;18.50;90.00;18.10;96394.00;;;;5113808;28;20202;-72
2022/08/31 11:11:34;;;;;;;1.83;1.73;;;18.50;90.30;18.10;96392.00;;;;5095929;28;20218;-74
2022/08/31 11:14:33;;;;;;;1.47;1.37;;;18.50;89.80;18.10;96389.00;;;;5113695;28;20226;-75
2022/08/31 11:17:20;;;;;;;1.63;1.57;;;18.60;91.30;18.10;96384.00;;;;5095833;28;20234;-74
2022/08/31 11:20:24;;;;;;;1.17;1.17;;;18.60;91.10;18.20;96388.00;;;;5113680;28;20209;-73
2022/08/31 11:23:28;;;;;;;1.30;1.27;;;18.70;90.30;18.30;96373.00;;;;5098224;28;20248;-74
2022/08/31 11:26:40;;;;;;;0.60;0.60;;;18.70;88.50;18.30;96380.00;;;;5113549;28;20222;-75
2022/08/31 11:29:29;;;;;;;1.30;1.30;;;18.80;89.20;18.30;96365.00;;;;5113636;28;20186;-74
2022/08/31 11:32:06;;;;;;;1.50;1.40;;;18.80;89.60;18.40;96366.00;;;;5113461;28;20609;-74
2022/08/31 11:34:46;;;;;;;2.27;2.10;;;18.90;90.30;18.50;96373.00;;;;5113395;28;20645;-74
2022/08/31 11:37:53;;;;;;;1.30;1.30;;;19.00;89.50;18.70;96368.00;;;;5113361;28;20221;-71
2022/08/31 11:40:59;;;;;;;1.37;1.37;;;19.20;89.40;18.70;96363.00;;;;5113412;28;20201;-76
2022/08/31 11:43:52;;;;;;;1.17;1.17;;;19.30;87.20;19.00;96354.00;;;;5113366;28;20277;-75
2022/08/31 11:47:00;;;;;;;0.90;0.90;;;19.40;88.70;19.20;96361.00;;;;5116526;28;20218;-74
2022/08/31 11:49:55;;;;;;;3.60;1.30;;;19.50;88.10;19.50;96350.00;;;;5116952;28;20289;-74
2022/08/31 11:52:46;;;;;;;1.83;1.73;;;19.80;86.70;19.70;96348.00;;;;5059178;28;20257;-74
2022/08/31 11:55:27;;;;;;;2.13;2.03;;;20.00;84.00;19.80;96344.00;;;;5116807;28;20294;-74
2022/08/31 11:58:31;;;;;;;1.27;1.27;;;20.20;83.10;19.90;96355.00;;;;5116763;28;20533;-74
2022/08/31 12:01:32;;;;;;;1.87;1.77;;;20.30;81.50;20.10;96343.00;;;;5116626;28;20258;-70
2022/08/31 12:04:02;;;;;;;1.13;1.13;;;;;19.80;96342.00;;;;5116609;28;20258;-74
2022/08/31 12:07:06;;;;;;;0.80;0.80;;;20.30;78.40;20.00;96342.00;;;;5116569;28;20237;-74
2022/08/31 12:10:32;;;;;;;0.97;0.97;;;20.30;80.60;20.30;96342.00;;;;5116515;28;20640;-74
2022/08/31 12:13:27;;;;;;;2.07;1.97;;;20.60;79.00;20.70;96333.00;;;;5057740;28;20217;-74
2022/08/31 12:16:35;;;;;;;1.07;1.03;;;21.00;78.90;21.10;96327.00;;;;5116273;28;20267;-74
2022/08/31 12:26:01;;;;;;;1.13;1.13;;;22.60;70.50;23.70;96303.00;;;;5116291;28;20576;-75
2022/08/31 12:28:52;;;;;;;0.90;0.90;;;23.50;68.60;24.20;96299.00;;;;5116218;28;20648;-75
2022/08/31 12:31:19;;;;;;;1.60;1.50;;;24.00;65.00;24.70;96299.00;;;;5116213;28;20689;-75
2022/08/31 12:34:00;;;;;;;1.20;1.20;;;24.60;60.80;25.30;96315.00;;;;5098207;28;20228;-74
2022/08/31 12:36:31;;;;;;;1.27;1.27;;;25.10;59.50;24.80;96322.00;;;;5116382;28;20309;-73
2022/08/31 12:39:09;;;;;;;1.05;1.05;;;24.90;55.80;24.60;96313.00;;;;5116103;28;20225;-74
2022/08/31 12:41:43;;;;;;;1.15;1.15;;;24.80;56.70;24.90;96307.00;;;;5115970;28;20235;-74
2022/08/31 12:44:19;;;;;;;1.63;1.52;;;25.00;55.50;25.40;96304.00;;;;5115978;28;20200;-73
2022/08/31 12:47:01;;;;;;;1.48;1.40;;;25.50;55.60;25.80;96322.00;;;;5115933;28;20226;-74